createdAt,value
2023-01-17T00:01:55.405Z,1.73
2023-01-17T00:04:40.778Z,2.35
2023-01-17T00:07:29.235Z,1.75
2023-01-17T00:09:57.085Z,1.52
2023-01-17T00:12:29.396Z,1.70
2023-01-17T00:14:57.823Z,1.67
2023-01-17T00:17:25.863Z,2.38
2023-01-17T00:20:11.415Z,2.45
2023-01-17T00:22:56.729Z,2.15
2023-01-17T00:25:48.600Z,2.78
2023-01-17T00:28:15.473Z,2.78
2023-01-17T00:30:42.027Z,2.00
2023-01-17T00:33:08.603Z,1.08
2023-01-17T00:35:35.135Z,1.50
2023-01-17T00:38:13.666Z,1.63
2023-01-17T00:40:41.924Z,1.65
2023-01-17T00:43:29.357Z,1.05
2023-01-17T00:46:15.242Z,1.10
2023-01-17T00:51:47.324Z,1.42
2023-01-17T00:54:33.091Z,1.85
2023-01-17T01:00:03.884Z,0.82
2023-01-17T01:02:49.128Z,2.72
2023-01-17T01:05:34.968Z,1.13
2023-01-17T01:08:21.222Z,1.00
2023-01-17T01:11:06.924Z,0.70
2023-01-17T01:16:38.238Z,0.70
2023-01-17T01:19:24.606Z,0.95
2023-01-17T01:22:09.958Z,0.60
2023-01-17T01:24:55.111Z,0.60
2023-01-17T01:27:40.390Z,3.30
2023-01-17T01:30:26.172Z,0.68
2023-01-17T01:35:38.227Z,0.57
2023-01-17T01:38:04.940Z,0.50
2023-01-17T01:40:31.572Z,1.58
2023-01-17T01:42:59.989Z,0.70
2023-01-17T01:45:32.053Z,0.75
2023-01-17T01:48:06.984Z,0.68
2023-01-17T01:50:36.848Z,1.65
2023-01-17T01:53:06.760Z,0.60
2023-01-17T01:55:35.942Z,0.60
2023-01-17T01:58:42.595Z,0.57
2023-01-17T02:03:37.401Z,0.75
2023-01-17T02:06:15.933Z,3.30
2023-01-17T02:08:42.716Z,0.95
2023-01-17T02:11:09.586Z,13.32
2023-01-17T02:13:36.464Z,0.40
2023-01-17T02:16:25.890Z,0.63
2023-01-17T02:19:18.955Z,1.27
2023-01-17T02:22:08.625Z,0.38
2023-01-17T02:24:41.225Z,1.33
2023-01-17T02:27:35.095Z,2.95
2023-01-17T02:30:35.284Z,0.40
2023-01-17T02:33:29.422Z,0.38
2023-01-17T02:36:14.440Z,0.40
2023-01-17T02:39:07.756Z,1.70
2023-01-17T02:41:38.804Z,0.55
2023-01-17T02:44:08.687Z,0.50
2023-01-17T02:46:50.196Z,0.68
2023-01-17T02:49:19.225Z,0.40
2023-01-17T02:52:18.698Z,0.47
2023-01-17T02:54:59.656Z,0.40
2023-01-17T02:57:54.196Z,0.50
2023-01-17T03:00:39.230Z,0.40
2023-01-17T03:03:25.728Z,0.20
2023-01-17T03:05:59.676Z,0.40
2023-01-17T03:08:28.243Z,0.50
2023-01-17T03:10:55.209Z,0.40
2023-01-17T03:13:21.887Z,0.50
2023-01-17T03:15:48.528Z,0.43
2023-01-17T03:18:16.292Z,0.47
2023-01-17T03:20:42.860Z,1.10
2023-01-17T03:23:09.555Z,0.40
2023-01-17T03:25:36.097Z,0.50
2023-01-17T03:28:03.561Z,0.50
2023-01-17T03:30:30.097Z,0.60
2023-01-17T03:32:56.654Z,0.50
2023-01-17T03:35:23.170Z,0.50
2023-01-17T03:37:49.742Z,0.50
2023-01-17T03:40:16.530Z,0.60
2023-01-17T03:42:43.632Z,0.55
2023-01-17T03:45:10.683Z,0.50
2023-01-17T03:47:37.262Z,0.60
2023-01-17T03:50:04.838Z,0.63
2023-01-17T03:52:31.460Z,0.80
2023-01-17T03:54:58.110Z,0.60
2023-01-17T03:57:24.681Z,0.95
2023-01-17T03:59:51.279Z,2.05
2023-01-17T04:02:18.075Z,1.65
2023-01-17T04:04:44.709Z,1.73
2023-01-17T04:07:11.296Z,1.95
2023-01-17T04:09:37.909Z,1.95
2023-01-17T04:12:04.535Z,1.38
2023-01-17T04:14:31.110Z,1.50
2023-01-17T04:16:57.763Z,1.00
2023-01-17T04:19:24.463Z,1.02
2023-01-17T04:21:51.050Z,2.35
2023-01-17T04:24:18.101Z,2.50
2023-01-17T04:26:44.915Z,2.83
2023-01-17T04:29:11.497Z,5.22
2023-01-17T04:31:38.091Z,4.28
2023-01-17T04:34:04.629Z,3.67
2023-01-17T04:36:31.421Z,11.93
2023-01-17T04:38:57.928Z,6.88
2023-01-17T04:41:24.481Z,5.07
2023-01-17T04:43:51.001Z,2.78
2023-01-17T04:46:17.668Z,2.97
2023-01-17T04:48:44.231Z,5.50
2023-01-17T04:51:10.781Z,2.00
2023-01-17T04:53:37.596Z,1.75
2023-01-17T04:56:04.581Z,3.75
2023-01-17T04:58:31.451Z,2.25
2023-01-17T05:01:02.137Z,1.95
2023-01-17T05:03:29.437Z,2.83
2023-01-17T05:05:55.975Z,2.00
2023-01-17T05:08:22.628Z,2.47
2023-01-17T05:10:49.262Z,7.75
2023-01-17T05:13:15.971Z,1.60
2023-01-17T05:15:42.570Z,1.90
2023-01-17T05:18:13.814Z,1.38
2023-01-17T05:20:40.645Z,1.77
2023-01-17T05:23:07.655Z,1.77
2023-01-17T05:25:34.624Z,3.03
2023-01-17T05:28:01.844Z,4.05
2023-01-17T05:30:30.123Z,2.75
2023-01-17T05:32:58.281Z,2.08
2023-01-17T05:35:28.443Z,1.83
2023-01-17T05:37:55.101Z,1.90
2023-01-17T05:40:30.677Z,1.55
2023-01-17T05:42:59.850Z,2.28
2023-01-17T05:45:28.618Z,5.72
2023-01-17T05:47:56.358Z,4.00
2023-01-17T05:50:27.259Z,2.33
2023-01-17T05:52:56.475Z,2.47
2023-01-17T05:55:24.161Z,2.13
2023-01-17T05:57:51.451Z,4.50
2023-01-17T06:00:18.918Z,2.25
2023-01-17T06:02:46.734Z,5.35
2023-01-17T06:05:14.840Z,4.22
2023-01-17T06:07:45.783Z,1.52
2023-01-17T06:10:16.855Z,1.77
2023-01-17T06:12:44.822Z,2.17
2023-01-17T06:15:13.068Z,1.52
2023-01-17T06:17:39.672Z,1.80
2023-01-17T06:20:07.903Z,2.42
2023-01-17T06:22:34.845Z,4.28
2023-01-17T06:25:01.424Z,1.45
2023-01-17T06:27:28.379Z,9.00
2023-01-17T06:29:54.893Z,3.08
2023-01-17T06:32:21.587Z,8.02
2023-01-17T06:34:48.055Z,1.23
2023-01-17T06:37:14.579Z,1.63
2023-01-17T06:39:41.156Z,4.53
2023-01-17T06:42:07.779Z,1.70
2023-01-17T06:44:34.289Z,2.72
2023-01-17T06:47:00.828Z,5.30
2023-01-17T06:49:27.372Z,3.42
2023-01-17T06:51:53.924Z,2.50
2023-01-17T06:54:20.457Z,3.63
2023-01-17T06:56:47.044Z,2.88
2023-01-17T06:59:13.586Z,3.42
2023-01-17T07:01:41.386Z,3.67
2023-01-17T07:04:08.105Z,3.33
2023-01-17T07:06:37.719Z,4.18
2023-01-17T07:09:04.561Z,3.25
2023-01-17T07:11:31.873Z,5.03
2023-01-17T07:13:58.521Z,2.85
2023-01-17T07:16:25.300Z,4.72
2023-01-17T07:18:52.005Z,4.45
2023-01-17T07:21:18.647Z,2.83
2023-01-17T07:23:45.289Z,5.53
2023-01-17T07:26:11.905Z,6.80
2023-01-17T07:28:38.388Z,3.75
2023-01-17T07:31:07.875Z,2.40
2023-01-17T07:33:35.393Z,4.90
2023-01-17T07:36:09.253Z,4.18
2023-01-17T07:38:36.096Z,3.97
2023-01-17T07:41:02.876Z,5.80
2023-01-17T07:43:30.049Z,3.75
2023-01-17T07:45:56.619Z,6.35
2023-01-17T07:48:24.756Z,8.80
2023-01-17T07:50:56.163Z,7.03
2023-01-17T07:53:27.480Z,5.68
2023-01-17T07:55:54.612Z,9.60
2023-01-17T07:58:21.791Z,10.52
2023-01-17T08:00:48.529Z,6.18
2023-01-17T08:03:17.424Z,6.60
2023-01-17T08:05:53.645Z,5.72
2023-01-17T08:08:20.426Z,7.70
2023-01-17T08:10:47.182Z,12.85
2023-01-17T08:13:13.881Z,7.45
2023-01-17T08:15:40.685Z,7.90
2023-01-17T08:18:07.305Z,12.82
2023-01-17T08:20:33.898Z,11.63
2023-01-17T08:23:00.538Z,11.15
2023-01-17T08:25:27.166Z,10.57
2023-01-17T08:27:57.341Z,14.40
2023-01-17T08:30:24.469Z,9.73
2023-01-17T08:32:51.047Z,16.63
2023-01-17T08:35:17.711Z,10.90
2023-01-17T08:39:34.074Z,17.60
2023-01-17T08:42:00.897Z,20.35
2023-01-17T08:44:27.571Z,13.27
2023-01-17T08:46:54.115Z,11.73
2023-01-17T08:49:20.745Z,11.73
2023-01-17T08:51:47.401Z,13.70
2023-01-17T08:54:15.391Z,16.52
2023-01-17T08:56:42.823Z,13.38
2023-01-17T08:59:11.735Z,18.02
2023-01-17T09:01:41.706Z,11.73
2023-01-17T09:04:09.252Z,25.88
2023-01-17T09:06:37.995Z,16.30
2023-01-17T09:09:05.360Z,21.92
2023-01-17T09:11:31.887Z,18.13
2023-01-17T09:13:58.768Z,14.98
2023-01-17T09:16:25.989Z,18.98
2023-01-17T09:18:57.580Z,17.35
2023-01-17T09:21:26.022Z,11.77
2023-01-17T09:23:53.193Z,12.45
2023-01-17T09:26:21.183Z,15.77
2023-01-17T09:28:47.993Z,12.68
2023-01-17T09:31:16.587Z,17.08
2023-01-17T09:33:44.447Z,12.02
2023-01-17T09:36:11.237Z,15.82
2023-01-17T09:38:38.813Z,20.60
2023-01-17T09:41:22.721Z,9.45
2023-01-17T09:43:55.065Z,17.10
2023-01-17T09:46:26.774Z,10.43
2023-01-17T09:49:06.513Z,16.15
2023-01-17T09:51:33.236Z,15.40
2023-01-17T09:54:00.329Z,15.57
2023-01-17T09:56:42.707Z,15.68
2023-01-17T09:59:35.485Z,16.15
2023-01-17T10:02:30.756Z,18.20
2023-01-17T10:05:28.664Z,17.38
2023-01-17T10:08:07.330Z,17.70
2023-01-17T10:11:12.843Z,11.88
2023-01-17T10:14:01.312Z,13.50
2023-01-17T10:16:54.986Z,11.93
2023-01-17T10:19:55.019Z,12.65
2023-01-17T10:22:43.695Z,13.02
2023-01-17T10:25:42.980Z,10.93
2023-01-17T10:28:17.284Z,11.38
2023-01-17T10:30:49.575Z,12.30
2023-01-17T10:33:26.999Z,15.50
2023-01-17T10:35:55.301Z,13.52
2023-01-17T10:38:28.617Z,14.02
2023-01-17T10:41:01.866Z,19.33
2023-01-17T10:43:44.336Z,14.10
2023-01-17T10:46:28.322Z,17.60
2023-01-17T10:48:56.634Z,19.60
2023-01-17T10:51:32.288Z,14.45
2023-01-17T10:54:20.694Z,16.60
2023-01-17T10:56:47.848Z,21.95
2023-01-17T10:59:22.479Z,17.55
2023-01-17T11:01:51.055Z,14.40
2023-01-17T11:04:40.271Z,15.10
2023-01-17T11:07:27.282Z,15.20
2023-01-17T11:09:58.464Z,17.63
2023-01-17T11:12:43.650Z,17.27
2023-01-17T11:15:10.132Z,21.67
2023-01-17T11:17:41.403Z,18.15
2023-01-17T11:20:13.596Z,18.58
2023-01-17T11:22:45.825Z,16.33
2023-01-17T11:25:22.156Z,15.30
2023-01-17T11:28:04.947Z,9.98
2023-01-17T11:30:31.674Z,14.25
2023-01-17T11:33:21.952Z,8.93
2023-01-17T11:35:48.584Z,14.48
2023-01-17T11:38:21.232Z,8.55
2023-01-17T11:40:49.410Z,9.63
2023-01-17T11:43:25.814Z,11.27
2023-01-17T11:46:15.234Z,11.98
2023-01-17T11:48:42.011Z,8.82
2023-01-17T11:51:19.553Z,23.55
2023-01-17T11:53:48.297Z,8.77
2023-01-17T11:56:33.357Z,13.05
2023-01-17T11:59:28.530Z,15.60
2023-01-17T12:02:22.359Z,17.38
2023-01-17T12:05:01.106Z,9.05
2023-01-17T12:07:37.882Z,18.20
2023-01-17T12:10:19.807Z,11.10
2023-01-17T12:13:16.946Z,16.50
2023-01-17T12:16:32.078Z,13.10
2023-01-17T12:19:17.808Z,14.95
2023-01-17T12:21:58.000Z,14.40
2023-01-17T12:24:50.156Z,13.52
2023-01-17T12:27:29.510Z,9.40
2023-01-17T12:30:31.780Z,6.68
2023-01-17T12:33:19.072Z,12.20
2023-01-17T12:35:56.664Z,11.85
2023-01-17T12:38:33.429Z,14.50
2023-01-17T12:41:10.129Z,11.48
2023-01-17T12:43:40.335Z,9.32
2023-01-17T12:46:27.069Z,11.98
2023-01-17T12:48:58.473Z,8.80
2023-01-17T12:51:29.507Z,18.20
2023-01-17T12:54:11.312Z,8.30
2023-01-17T12:56:45.941Z,13.10
2023-01-17T12:59:22.376Z,13.65
2023-01-17T13:01:57.370Z,19.33
2023-01-17T13:04:24.129Z,14.23
2023-01-17T13:07:02.045Z,13.82
2023-01-17T13:09:34.812Z,11.95
2023-01-17T13:12:09.829Z,7.97
2023-01-17T13:14:36.402Z,9.88
2023-01-17T13:17:24.444Z,14.55
2023-01-17T13:20:15.625Z,9.93
2023-01-17T13:22:44.262Z,7.32
2023-01-17T13:25:45.868Z,8.30
2023-01-17T13:28:27.687Z,12.32
2023-01-17T13:31:26.677Z,11.93
2023-01-17T13:34:18.723Z,5.68
2023-01-17T13:36:57.692Z,5.30
2023-01-17T13:39:42.472Z,7.35
2023-01-17T13:42:41.300Z,10.37
2023-01-17T13:45:17.492Z,8.25
2023-01-17T13:47:44.119Z,5.45
2023-01-17T13:50:38.821Z,12.70
2023-01-17T13:53:27.298Z,13.10
2023-01-17T13:56:06.108Z,14.52
2023-01-17T13:59:02.461Z,10.15
2023-01-17T14:04:03.941Z,5.57
2023-01-17T14:06:46.359Z,6.38
2023-01-17T14:09:12.943Z,13.95
2023-01-17T14:12:01.330Z,7.65
2023-01-17T14:14:43.619Z,9.05
2023-01-17T14:17:16.871Z,9.98
2023-01-17T14:19:48.280Z,10.60
2023-01-17T14:22:20.939Z,20.00
2023-01-17T14:25:02.794Z,8.73
2023-01-17T14:27:34.568Z,17.88
2023-01-17T14:30:02.769Z,10.93
2023-01-17T14:32:36.116Z,11.45
2023-01-17T14:35:04.741Z,8.93
2023-01-17T14:37:51.256Z,5.32
2023-01-17T14:40:26.298Z,12.02
2023-01-17T14:42:59.818Z,11.20
2023-01-17T14:45:29.576Z,11.43
2023-01-17T14:47:58.867Z,8.48
2023-01-17T14:50:35.129Z,11.00
2023-01-17T14:53:13.869Z,10.57
2023-01-17T14:56:15.547Z,8.48
2023-01-17T14:58:42.511Z,6.43
2023-01-17T15:01:18.990Z,3.40
2023-01-17T15:03:55.798Z,5.90
2023-01-17T15:06:27.539Z,8.15
2023-01-17T15:08:54.385Z,5.22
2023-01-17T15:11:25.574Z,6.18
2023-01-17T15:13:57.288Z,7.63
2023-01-17T15:16:30.887Z,7.78
2023-01-17T15:18:57.833Z,6.28
2023-01-17T15:21:31.635Z,7.00
2023-01-17T15:24:01.264Z,7.25
2023-01-17T15:26:33.042Z,4.10
2023-01-17T15:29:06.987Z,12.55
2023-01-17T15:31:42.918Z,7.75
2023-01-17T15:34:27.451Z,7.40
2023-01-17T15:36:57.824Z,4.45
2023-01-17T15:39:27.634Z,6.35
2023-01-17T15:41:56.592Z,9.13
2023-01-17T15:44:47.075Z,10.65
2023-01-17T15:47:38.637Z,6.78
2023-01-17T15:50:21.149Z,3.80
2023-01-17T15:52:49.898Z,4.32
2023-01-17T15:55:47.818Z,4.85
2023-01-17T15:58:29.697Z,7.45
2023-01-17T16:00:56.944Z,6.20
2023-01-17T16:03:30.226Z,8.02
2023-01-17T16:06:00.154Z,8.43
2023-01-17T16:08:29.989Z,5.57
2023-01-17T16:11:02.157Z,7.45
2023-01-17T16:13:32.035Z,6.97
2023-01-17T16:16:23.788Z,4.15
2023-01-17T16:18:58.809Z,12.63
2023-01-17T16:21:27.893Z,11.15
2023-01-17T16:23:55.079Z,11.82
2023-01-17T16:26:22.160Z,6.85
2023-01-17T16:28:49.317Z,3.97
2023-01-17T16:31:16.989Z,11.32
2023-01-17T16:33:45.721Z,4.53
2023-01-17T16:36:14.756Z,4.93
2023-01-17T16:38:42.407Z,6.90
2023-01-17T16:41:09.380Z,5.70
2023-01-17T16:43:36.023Z,10.75
2023-01-17T16:46:02.654Z,6.78
2023-01-17T16:48:29.177Z,6.30
2023-01-17T16:50:55.809Z,8.48
2023-01-17T16:53:27.908Z,6.43
2023-01-17T16:55:58.159Z,6.47
2023-01-17T16:58:25.640Z,6.68
2023-01-17T17:00:52.350Z,5.82
2023-01-17T17:03:22.616Z,13.77
2023-01-17T17:05:57.361Z,10.02
2023-01-17T17:08:24.168Z,10.82
2023-01-17T17:10:50.816Z,19.10
2023-01-17T17:13:17.381Z,11.35
2023-01-17T17:15:44.754Z,12.07
2023-01-17T17:18:15.875Z,16.58
2023-01-17T17:20:43.301Z,13.90
2023-01-17T17:23:10.714Z,19.23
2023-01-17T17:25:38.141Z,23.65
2023-01-17T17:28:05.685Z,15.45
2023-01-17T17:30:33.189Z,28.88
2023-01-17T17:33:00.051Z,24.70
2023-01-17T17:35:26.816Z,29.08
2023-01-17T17:37:53.830Z,29.23
2023-01-17T17:40:20.785Z,22.08
2023-01-17T17:42:47.462Z,27.58
2023-01-17T17:45:14.188Z,41.28
2023-01-17T17:47:40.867Z,45.80
2023-01-17T17:50:08.261Z,53.33
2023-01-17T17:52:34.887Z,41.83
2023-01-17T17:55:01.475Z,46.20
2023-01-17T17:57:27.982Z,41.17
2023-01-17T17:59:56.672Z,32.75
2023-01-17T18:02:23.407Z,26.63
2023-01-17T18:04:50.109Z,29.30
2023-01-17T18:07:16.849Z,19.10
2023-01-17T18:09:46.113Z,33.08
2023-01-17T18:12:13.143Z,27.67
2023-01-17T18:14:40.246Z,31.80
2023-01-17T18:17:06.756Z,34.55
2023-01-17T18:19:33.297Z,30.40
2023-01-17T18:21:59.964Z,36.70
2023-01-17T18:24:27.459Z,40.15
2023-01-17T18:26:57.070Z,48.03
2023-01-17T18:29:25.949Z,32.08
2023-01-17T18:31:53.724Z,37.25
2023-01-17T18:34:28.940Z,41.90
2023-01-17T18:39:25.838Z,30.55
2023-01-17T18:41:53.810Z,26.35
2023-01-17T18:44:22.152Z,26.25
2023-01-17T18:46:50.203Z,27.35
2023-01-17T18:49:18.943Z,28.30
2023-01-17T18:51:48.972Z,35.42
2023-01-17T18:54:19.652Z,29.25
2023-01-17T18:56:46.675Z,26.88
2023-01-17T18:59:14.387Z,18.77
2023-01-17T19:01:44.364Z,13.02
2023-01-17T19:04:12.906Z,12.88
2023-01-17T19:06:41.697Z,14.45
2023-01-17T19:09:09.185Z,20.52
2023-01-17T19:11:36.594Z,14.70
2023-01-17T19:14:03.723Z,18.38
2023-01-17T19:16:34.537Z,22.02
2023-01-17T19:19:04.537Z,14.68
2023-01-17T19:21:31.879Z,19.60
2023-01-17T19:23:59.527Z,13.88
2023-01-17T19:26:27.438Z,31.80
2023-01-17T19:29:06.578Z,18.70
2023-01-17T19:31:38.924Z,12.65
2023-01-17T19:34:05.555Z,15.65
2023-01-17T19:36:34.501Z,13.57
2023-01-17T19:39:05.215Z,13.63
2023-01-17T19:41:34.638Z,19.45
2023-01-17T19:44:04.587Z,13.00
2023-01-17T19:46:32.339Z,15.02
2023-01-17T19:48:59.460Z,10.25
2023-01-17T19:51:26.815Z,13.73
2023-01-17T19:53:53.915Z,11.88
2023-01-17T19:56:23.251Z,12.90
2023-01-17T19:58:50.255Z,19.67
2023-01-17T20:01:20.490Z,13.18
2023-01-17T20:03:48.781Z,10.85
2023-01-17T20:06:18.999Z,8.85
2023-01-17T20:08:46.123Z,13.32
2023-01-17T20:11:16.025Z,13.70
2023-01-17T20:13:42.708Z,14.98
2023-01-17T20:16:11.312Z,12.10
2023-01-17T20:18:37.905Z,14.50
2023-01-17T20:21:10.209Z,14.15
2023-01-17T20:23:38.790Z,19.33
2023-01-17T20:26:06.160Z,15.10
2023-01-17T20:28:34.831Z,13.52
2023-01-17T20:31:12.543Z,15.30
2023-01-17T20:33:40.570Z,14.80
2023-01-17T20:36:11.235Z,22.95
2023-01-17T20:38:44.972Z,14.60
2023-01-17T20:41:17.438Z,16.27
2023-01-17T20:43:47.471Z,15.95
2023-01-17T20:46:14.478Z,23.75
2023-01-17T20:48:49.511Z,14.15
2023-01-17T20:51:17.206Z,17.08
2023-01-17T20:53:45.209Z,14.30
2023-01-17T20:56:14.569Z,22.52
2023-01-17T20:58:42.024Z,27.75
2023-01-17T21:01:10.781Z,25.50
2023-01-17T21:03:38.746Z,21.42
2023-01-17T21:06:08.593Z,38.15
2023-01-17T21:08:39.397Z,28.60
2023-01-17T21:11:07.553Z,39.30
2023-01-17T21:13:34.420Z,44.53
2023-01-17T21:16:01.448Z,30.58
2023-01-17T21:18:31.606Z,44.40
2023-01-17T21:21:10.555Z,47.08
2023-01-17T21:23:39.856Z,34.03
2023-01-17T21:26:08.801Z,33.38
2023-01-17T21:28:37.478Z,32.00
2023-01-17T21:31:20.262Z,30.27
2023-01-17T21:33:47.722Z,30.60
2023-01-17T21:36:14.368Z,22.08
2023-01-17T21:38:40.988Z,20.25
2023-01-17T21:41:07.565Z,19.98
2023-01-17T21:43:34.276Z,18.90
2023-01-17T21:46:04.721Z,16.60
2023-01-17T21:48:31.738Z,25.92
2023-01-17T21:51:08.348Z,30.38
2023-01-17T21:53:36.757Z,23.50
2023-01-17T21:56:24.608Z,36.72
2023-01-17T21:58:54.622Z,28.13
2023-01-17T22:01:23.594Z,36.70
2023-01-17T22:03:54.590Z,54.78
2023-01-17T22:06:23.036Z,44.42
2023-01-17T22:08:49.806Z,36.20
2023-01-17T22:11:19.159Z,40.63
2023-01-17T22:13:47.100Z,41.67
2023-01-17T22:16:16.104Z,45.85
2023-01-17T22:18:43.690Z,37.05
2023-01-17T22:21:16.000Z,40.35
2023-01-17T22:24:00.880Z,37.05
2023-01-17T22:26:30.580Z,32.20
2023-01-17T22:29:00.414Z,30.48
2023-01-17T22:31:28.054Z,27.25
2023-01-17T22:34:00.514Z,30.42
2023-01-17T22:36:27.772Z,29.60
2023-01-17T22:38:54.727Z,29.58
2023-01-17T22:41:29.571Z,32.15
2023-01-17T22:43:58.729Z,25.85
2023-01-17T22:46:31.010Z,28.70
2023-01-17T22:48:58.618Z,15.50
2023-01-17T22:51:27.149Z,15.32
2023-01-17T22:53:59.711Z,13.88
2023-01-17T22:56:32.298Z,13.30
2023-01-17T22:59:00.682Z,13.65
2023-01-17T23:01:32.576Z,29.42
2023-01-17T23:04:01.663Z,34.78
2023-01-17T23:06:36.423Z,30.52
2023-01-17T23:09:06.466Z,41.75
2023-01-17T23:11:46.045Z,28.85
2023-01-17T23:14:18.750Z,27.08
2023-01-17T23:17:11.617Z,26.23
2023-01-17T23:19:44.675Z,29.50
2023-01-17T23:22:21.034Z,37.20
2023-01-17T23:25:04.868Z,18.27
2023-01-17T23:27:51.470Z,32.33
2023-01-17T23:30:34.376Z,16.70
2023-01-17T23:33:03.286Z,25.23
2023-01-17T23:35:32.740Z,20.38
2023-01-17T23:38:18.267Z,32.22
2023-01-17T23:41:08.860Z,21.42
2023-01-17T23:43:36.896Z,19.08
2023-01-17T23:46:04.854Z,28.52
2023-01-17T23:48:31.641Z,18.38
2023-01-17T23:51:00.410Z,29.60
2023-01-17T23:53:27.655Z,58.38
2023-01-17T23:55:56.705Z,29.33
2023-01-17T23:58:25.966Z,18.27
